createdAt,value
2023-01-06T00:01:03.346Z,14.90
2023-01-06T00:03:53.995Z,14.90
2023-01-06T00:06:42.311Z,14.90
2023-01-06T00:09:30.643Z,14.90
2023-01-06T00:12:19.011Z,15.10
2023-01-06T00:15:08.168Z,15.00
2023-01-06T00:17:56.614Z,15.00
2023-01-06T00:20:46.151Z,15.00
2023-01-06T00:23:34.858Z,15.00
2023-01-06T00:26:23.697Z,15.00
2023-01-06T00:29:12.370Z,15.00
2023-01-06T00:32:01.271Z,15.00
2023-01-06T00:34:49.525Z,15.00
2023-01-06T00:37:39.192Z,15.00
2023-01-06T00:40:27.745Z,15.00
2023-01-06T00:43:15.990Z,15.00
2023-01-06T00:46:04.843Z,15.00
2023-01-06T00:49:04.271Z,15.00
2023-01-06T00:51:53.519Z,15.00
2023-01-06T00:54:44.123Z,15.10
2023-01-06T00:57:32.759Z,15.00
2023-01-06T01:00:21.787Z,15.00
2023-01-06T01:03:10.164Z,15.00
2023-01-06T01:06:00.986Z,15.00
2023-01-06T01:08:49.304Z,15.00
2023-01-06T01:11:56.326Z,15.00
2023-01-06T01:14:47.545Z,15.00
2023-01-06T01:17:36.175Z,14.90
2023-01-06T01:20:24.688Z,15.00
2023-01-06T01:23:13.045Z,15.00
2023-01-06T01:26:01.413Z,15.00
2023-01-06T01:28:51.118Z,15.00
2023-01-06T01:31:39.457Z,14.90
2023-01-06T01:34:28.111Z,14.90
2023-01-06T01:37:16.758Z,14.90
2023-01-06T01:40:05.925Z,14.90
2023-01-06T01:42:54.205Z,14.90
2023-01-06T01:45:45.440Z,14.80
2023-01-06T01:48:36.613Z,14.90
2023-01-06T01:51:29.541Z,14.80
2023-01-06T01:54:23.530Z,14.90
2023-01-06T01:57:16.136Z,14.80
2023-01-06T02:00:07.082Z,14.80
2023-01-06T02:02:57.786Z,14.80
2023-01-06T02:05:50.727Z,14.80
2023-01-06T02:08:41.411Z,14.80
2023-01-06T02:11:33.118Z,14.80
2023-01-06T02:14:23.766Z,14.80
2023-01-06T02:17:25.474Z,14.80
2023-01-06T02:20:35.373Z,14.80
2023-01-06T02:23:53.518Z,14.80
2023-01-06T02:27:19.551Z,14.80
2023-01-06T02:30:41.840Z,14.80
2023-01-06T02:33:34.272Z,14.80
2023-01-06T02:36:31.479Z,14.80
2023-01-06T02:39:31.214Z,14.80
2023-01-06T02:42:27.115Z,14.80
2023-01-06T02:45:21.397Z,14.80
2023-01-06T02:48:13.615Z,14.80
2023-01-06T02:51:10.763Z,14.80
2023-01-06T02:54:08.521Z,14.80
2023-01-06T02:57:05.005Z,14.80
2023-01-06T03:00:01.317Z,14.80
2023-01-06T03:02:56.129Z,14.80
2023-01-06T03:05:48.709Z,14.80
2023-01-06T03:08:39.791Z,14.70
2023-01-06T03:11:32.179Z,14.80
2023-01-06T03:14:24.300Z,14.80
2023-01-06T03:17:13.436Z,14.70
2023-01-06T03:20:02.108Z,14.70
2023-01-06T03:22:50.414Z,14.80
2023-01-06T03:25:40.681Z,14.80
2023-01-06T03:28:29.039Z,14.80
2023-01-06T03:31:32.138Z,14.70
2023-01-06T03:34:28.007Z,14.70
2023-01-06T03:37:26.900Z,14.80
2023-01-06T03:40:28.573Z,14.80
2023-01-06T03:43:25.675Z,14.80
2023-01-06T03:46:23.551Z,14.70
2023-01-06T03:49:22.053Z,14.80
2023-01-06T03:52:19.273Z,14.80
2023-01-06T03:55:12.093Z,14.70
2023-01-06T03:58:02.061Z,14.70
2023-01-06T04:00:52.907Z,14.70
2023-01-06T04:03:41.386Z,14.70
2023-01-06T04:06:29.716Z,14.70
2023-01-06T04:09:18.171Z,14.70
2023-01-06T04:12:23.945Z,14.70
2023-01-06T04:15:13.408Z,14.70
2023-01-06T04:18:03.058Z,14.70
2023-01-06T04:20:51.313Z,14.70
2023-01-06T04:23:39.496Z,14.70
2023-01-06T04:26:27.733Z,14.70
2023-01-06T04:29:15.999Z,14.70
2023-01-06T04:32:04.935Z,14.70
2023-01-06T04:34:54.574Z,14.70
2023-01-06T04:37:42.756Z,14.70
2023-01-06T04:40:31.003Z,14.70
2023-01-06T04:43:20.033Z,14.70
2023-01-06T04:46:08.539Z,14.70
2023-01-06T04:48:56.772Z,14.70
2023-01-06T04:51:46.345Z,14.70
2023-01-06T04:54:34.624Z,14.60
2023-01-06T04:57:22.806Z,14.70
2023-01-06T05:00:12.450Z,14.60
2023-01-06T05:03:00.743Z,14.60
2023-01-06T05:05:49.131Z,14.60
2023-01-06T05:08:40.065Z,14.60
2023-01-06T05:11:28.695Z,14.60
2023-01-06T05:14:17.185Z,14.60
2023-01-06T05:17:05.620Z,14.60
2023-01-06T05:19:54.205Z,14.60
2023-01-06T05:22:42.432Z,14.60
2023-01-06T05:25:32.116Z,14.60
2023-01-06T05:28:20.927Z,14.60
2023-01-06T05:31:12.059Z,14.60
2023-01-06T05:34:00.402Z,14.60
2023-01-06T05:36:48.818Z,14.50
2023-01-06T05:39:37.005Z,14.50
2023-01-06T05:42:26.685Z,14.50
2023-01-06T05:45:14.883Z,14.50
2023-01-06T05:48:03.384Z,14.50
2023-01-06T05:50:51.602Z,14.50
2023-01-06T05:53:41.558Z,14.50
2023-01-06T05:56:29.804Z,14.40
2023-01-06T05:59:19.449Z,14.50
2023-01-06T06:02:07.906Z,14.40
2023-01-06T06:04:56.146Z,14.40
2023-01-06T06:07:44.380Z,14.40
2023-01-06T06:10:32.562Z,14.40
2023-01-06T06:13:20.726Z,14.50
2023-01-06T06:16:12.665Z,14.50
2023-01-06T06:19:00.911Z,14.50
2023-01-06T06:21:49.117Z,14.50
2023-01-06T06:24:37.693Z,14.50
2023-01-06T06:27:26.033Z,14.40
2023-01-06T06:30:16.789Z,14.50
2023-01-06T06:33:06.371Z,14.40
2023-01-06T06:35:58.500Z,14.40
2023-01-06T06:38:48.197Z,14.40
2023-01-06T06:41:36.444Z,14.40
2023-01-06T06:44:24.769Z,14.40
2023-01-06T06:47:14.467Z,14.40
2023-01-06T06:50:04.112Z,14.40
2023-01-06T06:52:52.316Z,14.40
2023-01-06T06:55:40.623Z,14.40
2023-01-06T06:58:29.078Z,14.30
2023-01-06T07:01:19.446Z,14.30
2023-01-06T07:04:08.384Z,14.30
2023-01-06T07:06:59.054Z,14.30
2023-01-06T07:09:47.251Z,14.30
2023-01-06T07:12:35.439Z,14.30
2023-01-06T07:15:23.727Z,14.30
2023-01-06T07:18:12.545Z,14.30
2023-01-06T07:21:00.850Z,14.30
2023-01-06T07:23:50.526Z,14.30
2023-01-06T07:26:38.948Z,14.30
2023-01-06T07:29:27.125Z,14.30
2023-01-06T07:32:15.521Z,14.30
2023-01-06T07:35:03.732Z,14.30
2023-01-06T07:37:52.010Z,14.30
2023-01-06T07:40:41.620Z,14.30
2023-01-06T07:43:30.225Z,14.30
2023-01-06T07:46:18.443Z,14.30
2023-01-06T07:49:06.737Z,14.30
2023-01-06T07:51:54.910Z,14.40
2023-01-06T07:54:43.282Z,14.40
2023-01-06T07:57:33.002Z,14.40
2023-01-06T08:00:21.696Z,14.40
2023-01-06T08:03:12.559Z,14.30
2023-01-06T08:06:00.894Z,14.40
2023-01-06T08:08:49.225Z,14.30
2023-01-06T08:11:37.574Z,14.30
2023-01-06T08:14:27.260Z,14.40
2023-01-06T08:17:15.593Z,14.30
2023-01-06T08:20:04.092Z,14.40
2023-01-06T08:22:52.481Z,14.40
2023-01-06T08:25:40.704Z,14.40
2023-01-06T08:28:29.039Z,14.40
2023-01-06T08:31:20.632Z,14.40
2023-01-06T08:34:08.952Z,14.40
2023-01-06T08:36:57.164Z,14.40
2023-01-06T08:39:45.606Z,14.40
2023-01-06T08:42:33.848Z,14.40
2023-01-06T08:45:22.200Z,14.40
2023-01-06T08:48:12.077Z,14.50
2023-01-06T08:51:05.082Z,14.40
2023-01-06T08:53:54.232Z,14.50
2023-01-06T08:56:43.636Z,14.50
2023-01-06T08:59:32.278Z,14.50
2023-01-06T09:02:20.992Z,14.50
2023-01-06T09:05:11.182Z,14.50
2023-01-06T09:07:59.606Z,14.50
2023-01-06T09:10:48.072Z,14.50
2023-01-06T09:13:37.195Z,14.50
2023-01-06T09:16:25.629Z,14.50
2023-01-06T09:19:13.898Z,14.60
2023-01-06T09:22:03.680Z,14.60
2023-01-06T09:24:52.039Z,14.60
2023-01-06T09:27:40.486Z,14.60
2023-01-06T09:30:28.938Z,14.60
2023-01-06T09:33:17.913Z,14.60
2023-01-06T09:36:06.835Z,14.60
2023-01-06T09:38:56.550Z,14.70
2023-01-06T09:42:04.655Z,14.70
2023-01-06T09:44:57.223Z,14.70
2023-01-06T09:47:48.650Z,14.80
2023-01-06T09:50:41.306Z,14.80
2023-01-06T09:53:34.205Z,14.80
2023-01-06T09:56:25.872Z,14.80
2023-01-06T09:59:22.738Z,14.80
2023-01-06T10:02:16.947Z,14.80
2023-01-06T10:05:19.685Z,14.80
2023-01-06T10:08:16.816Z,14.80
2023-01-06T10:11:14.886Z,14.90
2023-01-06T10:14:11.893Z,14.90
2023-01-06T10:17:16.306Z,14.90
2023-01-06T10:20:20.342Z,15.00
2023-01-06T10:23:21.540Z,15.00
2023-01-06T10:26:13.824Z,15.00
2023-01-06T10:29:07.337Z,15.00
2023-01-06T10:31:57.798Z,15.00
2023-01-06T10:34:47.650Z,15.00
2023-01-06T10:37:40.271Z,15.00
2023-01-06T10:40:30.702Z,15.00
2023-01-06T10:43:22.600Z,15.10
2023-01-06T10:46:12.487Z,15.10
2023-01-06T10:49:01.318Z,15.10
2023-01-06T10:51:53.003Z,15.20
2023-01-06T10:54:42.796Z,15.20
2023-01-06T10:57:35.699Z,15.20
2023-01-06T11:00:25.998Z,15.20
2023-01-06T11:03:32.414Z,15.30
2023-01-06T11:06:29.216Z,15.30
2023-01-06T11:09:27.495Z,15.30
2023-01-06T11:12:20.728Z,15.30
2023-01-06T11:15:09.918Z,15.30
2023-01-06T11:17:58.198Z,15.30
2023-01-06T11:21:01.615Z,15.40
2023-01-06T11:23:50.586Z,15.40
2023-01-06T11:26:46.014Z,15.40
2023-01-06T11:29:36.309Z,15.40
2023-01-06T11:32:27.722Z,15.40
2023-01-06T11:35:21.078Z,15.50
2023-01-06T11:38:15.249Z,15.40
2023-01-06T11:41:10.935Z,15.50
2023-01-06T11:44:08.757Z,15.50
2023-01-06T11:46:59.086Z,15.50
2023-01-06T11:49:49.917Z,15.40
2023-01-06T11:52:39.342Z,15.40
2023-01-06T11:55:30.728Z,15.50
2023-01-06T11:58:24.350Z,15.50
2023-01-06T12:01:21.608Z,15.50
2023-01-06T12:04:19.433Z,15.50
2023-01-06T12:07:16.425Z,15.60
2023-01-06T12:10:13.294Z,15.60
2023-01-06T12:13:03.051Z,15.60
2023-01-06T12:15:59.364Z,15.60
2023-01-06T12:18:47.913Z,15.60
2023-01-06T12:21:37.406Z,15.60
2023-01-06T12:24:27.542Z,15.60
2023-01-06T12:27:24.833Z,15.60
2023-01-06T12:30:20.134Z,15.60
2023-01-06T12:33:16.705Z,15.60
2023-01-06T12:36:12.226Z,15.60
2023-01-06T12:39:05.560Z,15.70
2023-01-06T12:41:56.452Z,15.70
2023-01-06T12:44:49.072Z,15.70
2023-01-06T12:47:44.353Z,15.80
2023-01-06T12:50:37.254Z,15.80
2023-01-06T12:53:28.252Z,15.80
2023-01-06T12:56:44.273Z,15.80
2023-01-06T12:59:46.790Z,15.80
2023-01-06T13:02:53.785Z,15.80
2023-01-06T13:05:56.484Z,15.90
2023-01-06T13:09:00.371Z,15.80
2023-01-06T13:12:08.769Z,15.80
2023-01-06T13:15:04.948Z,15.90
2023-01-06T13:18:05.486Z,15.90
2023-01-06T13:21:02.034Z,15.90
2023-01-06T13:24:21.496Z,15.90
2023-01-06T13:27:24.215Z,15.90
2023-01-06T13:30:30.098Z,15.90
2023-01-06T13:34:04.055Z,16.00
2023-01-06T13:37:17.075Z,16.00
2023-01-06T13:40:12.455Z,16.00
2023-01-06T13:43:07.283Z,16.00
2023-01-06T13:45:59.268Z,16.00
2023-01-06T13:48:54.633Z,16.00
2023-01-06T13:51:44.518Z,16.00
2023-01-06T13:55:15.577Z,16.00
2023-01-06T13:58:37.986Z,16.10
2023-01-06T14:01:34.313Z,16.10
2023-01-06T14:04:46.952Z,16.10
2023-01-06T14:07:37.639Z,16.10
2023-01-06T14:10:33.885Z,16.10
2023-01-06T14:13:24.575Z,16.10
2023-01-06T14:16:15.078Z,16.10
2023-01-06T14:19:08.247Z,16.10
2023-01-06T14:22:15.705Z,16.20
2023-01-06T14:25:09.000Z,16.20
2023-01-06T14:28:26.504Z,16.20
2023-01-06T14:31:48.555Z,16.20
2023-01-06T14:34:38.334Z,16.20
2023-01-06T14:37:30.458Z,16.20
2023-01-06T14:40:23.922Z,16.20
2023-01-06T14:43:31.189Z,16.20
2023-01-06T14:46:22.199Z,16.20
2023-01-06T14:49:19.771Z,16.20
2023-01-06T14:52:17.331Z,16.20
2023-01-06T14:55:11.950Z,16.20
2023-01-06T14:58:00.151Z,16.20
2023-01-06T15:00:48.407Z,16.20
2023-01-06T15:03:37.676Z,16.20
2023-01-06T15:06:28.111Z,16.20
2023-01-06T15:09:21.866Z,16.20
2023-01-06T15:12:25.631Z,16.20
2023-01-06T15:15:23.580Z,16.20
2023-01-06T15:18:14.358Z,16.20
2023-01-06T15:21:04.044Z,16.20
2023-01-06T15:23:54.090Z,16.20
2023-01-06T15:26:42.501Z,16.20
2023-01-06T15:29:32.101Z,16.20
2023-01-06T15:32:22.276Z,16.10
2023-01-06T15:35:15.591Z,16.10
2023-01-06T15:38:23.612Z,16.10
2023-01-06T15:41:32.580Z,16.10
2023-01-06T15:44:28.296Z,16.20
2023-01-06T15:47:29.443Z,16.10
2023-01-06T15:50:20.572Z,16.10
2023-01-06T15:53:20.735Z,16.10
2023-01-06T15:56:15.891Z,16.00
2023-01-06T15:59:04.200Z,16.00
2023-01-06T16:01:55.284Z,16.00
2023-01-06T16:04:49.080Z,16.00
2023-01-06T16:07:40.752Z,16.00
2023-01-06T16:10:34.708Z,16.00
2023-01-06T16:13:26.999Z,15.90
2023-01-06T16:16:28.668Z,15.90
2023-01-06T16:19:20.915Z,15.90
2023-01-06T16:22:28.876Z,15.90
2023-01-06T16:25:25.916Z,15.90
2023-01-06T16:28:21.886Z,15.90
2023-01-06T16:31:12.167Z,15.90
2023-01-06T16:34:17.621Z,15.90
2023-01-06T16:37:05.924Z,15.80
2023-01-06T16:39:59.490Z,15.80
2023-01-06T16:42:48.713Z,15.80
2023-01-06T16:45:42.172Z,15.80
2023-01-06T16:48:30.572Z,15.80
2023-01-06T16:51:19.117Z,15.80
2023-01-06T16:54:11.773Z,15.80
2023-01-06T16:57:02.427Z,15.80
2023-01-06T16:59:50.657Z,15.80
2023-01-06T17:02:39.110Z,15.80
2023-01-06T17:05:29.647Z,15.80
2023-01-06T17:08:22.752Z,15.80
2023-01-06T17:11:16.012Z,15.80
2023-01-06T17:14:15.359Z,15.80
2023-01-06T17:17:14.541Z,16.00
2023-01-06T17:20:03.104Z,15.90
2023-01-06T17:22:51.482Z,15.90
2023-01-06T17:25:39.811Z,15.90
2023-01-06T17:28:28.179Z,15.90
2023-01-06T17:31:22.362Z,15.80
2023-01-06T17:34:17.098Z,15.80
2023-01-06T17:37:13.350Z,15.90
2023-01-06T17:40:04.302Z,15.90
2023-01-06T17:43:01.622Z,15.90
2023-01-06T17:45:49.963Z,15.90
2023-01-06T17:48:39.556Z,15.90
2023-01-06T17:51:27.895Z,15.90
2023-01-06T17:54:35.218Z,15.90
2023-01-06T17:57:23.546Z,15.90
2023-01-06T18:00:21.981Z,16.00
2023-01-06T18:03:16.374Z,16.00
2023-01-06T18:06:27.009Z,15.90
2023-01-06T18:09:18.848Z,15.90
2023-01-06T18:12:14.438Z,15.80
2023-01-06T18:15:03.534Z,15.90
2023-01-06T18:17:51.848Z,15.80
2023-01-06T18:20:40.008Z,15.90
2023-01-06T18:23:29.946Z,15.80
2023-01-06T18:26:36.986Z,15.80
2023-01-06T18:29:27.456Z,15.80
2023-01-06T18:32:31.818Z,15.80
2023-01-06T18:35:21.983Z,15.80
2023-01-06T18:38:10.333Z,15.80
2023-01-06T18:40:59.965Z,15.80
2023-01-06T18:43:48.138Z,15.80
2023-01-06T18:46:36.659Z,15.80
2023-01-06T18:49:32.347Z,15.80
2023-01-06T18:52:33.545Z,15.80
2023-01-06T18:55:28.010Z,15.80
2023-01-06T18:58:30.104Z,15.80
2023-01-06T19:01:20.722Z,15.80
2023-01-06T19:04:19.134Z,15.80
2023-01-06T19:07:14.124Z,15.80
2023-01-06T19:10:06.353Z,15.80
2023-01-06T19:12:59.489Z,15.80
2023-01-06T19:15:49.592Z,15.80
2023-01-06T19:18:40.960Z,15.80
2023-01-06T19:21:29.445Z,15.80
2023-01-06T19:24:47.479Z,15.80
2023-01-06T19:27:43.354Z,15.80
2023-01-06T19:30:35.940Z,15.70
2023-01-06T19:33:29.475Z,15.80
2023-01-06T19:36:40.278Z,15.80
2023-01-06T19:39:33.758Z,15.70
2023-01-06T19:42:27.321Z,15.70
2023-01-06T19:45:29.627Z,15.70
2023-01-06T19:48:23.056Z,15.70
2023-01-06T19:51:27.490Z,15.70
2023-01-06T19:54:28.126Z,15.70
2023-01-06T19:57:24.783Z,15.70
2023-01-06T20:00:26.203Z,15.70
2023-01-06T20:03:27.972Z,15.70
2023-01-06T20:06:17.967Z,15.70
2023-01-06T20:09:06.207Z,15.70
2023-01-06T20:11:54.425Z,15.70
2023-01-06T20:14:42.734Z,15.70
2023-01-06T20:17:31.011Z,15.70
2023-01-06T20:20:19.347Z,15.70
2023-01-06T20:23:09.112Z,15.60
2023-01-06T20:25:57.467Z,15.60
2023-01-06T20:28:45.733Z,15.60
2023-01-06T20:31:34.407Z,15.60
2023-01-06T20:34:22.770Z,15.60
2023-01-06T20:37:11.175Z,15.60
2023-01-06T20:40:00.971Z,15.60
2023-01-06T20:42:49.220Z,15.50
2023-01-06T20:45:37.504Z,15.50
2023-01-06T20:48:25.913Z,15.50
2023-01-06T20:51:14.219Z,15.50
2023-01-06T20:54:02.437Z,15.60
2023-01-06T20:56:52.927Z,15.50
2023-01-06T20:59:41.276Z,15.50
2023-01-06T21:02:29.638Z,15.50
2023-01-06T21:05:18.554Z,15.50
2023-01-06T21:08:06.859Z,15.50
2023-01-06T21:10:55.089Z,15.50
2023-01-06T21:13:45.007Z,15.50
2023-01-06T21:16:33.283Z,15.50
2023-01-06T21:19:21.546Z,15.50
2023-01-06T21:22:09.809Z,15.50
2023-01-06T21:25:01.163Z,15.50
2023-01-06T21:27:49.359Z,15.40
2023-01-06T21:30:39.004Z,15.40
2023-01-06T21:33:27.757Z,15.50
2023-01-06T21:36:16.027Z,15.40
2023-01-06T21:39:05.922Z,15.40
2023-01-06T21:42:10.939Z,15.40
2023-01-06T21:44:59.247Z,15.40
2023-01-06T21:47:48.903Z,15.40
2023-01-06T21:50:39.738Z,15.40
2023-01-06T21:53:30.883Z,15.40
2023-01-06T21:56:19.190Z,15.50
2023-01-06T21:59:07.486Z,15.50
2023-01-06T22:01:55.739Z,15.40
2023-01-06T22:04:45.472Z,15.40
2023-01-06T22:07:35.953Z,15.50
2023-01-06T22:10:26.341Z,15.70
2023-01-06T22:13:19.398Z,16.00
2023-01-06T22:16:09.452Z,16.20
2023-01-06T22:18:58.923Z,16.40
2023-01-06T22:21:48.877Z,16.50
2023-01-06T22:24:37.757Z,16.70
2023-01-06T22:27:26.049Z,16.80
2023-01-06T22:30:14.619Z,16.90
2023-01-06T22:33:03.415Z,16.80
2023-01-06T22:35:51.853Z,16.80
2023-01-06T22:38:42.444Z,16.70
2023-01-06T22:41:30.852Z,16.50
2023-01-06T22:44:19.124Z,16.50
2023-01-06T22:47:07.413Z,16.40
2023-01-06T22:49:55.676Z,16.40
2023-01-06T22:52:44.005Z,16.30
2023-01-06T22:55:35.312Z,16.20
2023-01-06T22:58:23.995Z,16.20
2023-01-06T23:01:12.407Z,16.20
2023-01-06T23:04:01.658Z,16.10
2023-01-06T23:06:50.304Z,16.10
2023-01-06T23:09:38.753Z,16.10
2023-01-06T23:12:28.413Z,16.00
2023-01-06T23:15:16.792Z,16.00
2023-01-06T23:18:06.345Z,15.90
2023-01-06T23:20:59.204Z,15.90
2023-01-06T23:23:48.286Z,15.90
2023-01-06T23:26:41.732Z,15.80
2023-01-06T23:29:31.361Z,15.80
2023-01-06T23:32:20.283Z,15.80
2023-01-06T23:35:09.128Z,15.80
2023-01-06T23:37:57.485Z,15.80
2023-01-06T23:40:45.753Z,15.70
2023-01-06T23:43:36.064Z,15.70
2023-01-06T23:46:28.376Z,15.70
2023-01-06T23:49:17.947Z,15.70
2023-01-06T23:52:06.476Z,15.60
2023-01-06T23:54:54.794Z,15.60
2023-01-06T23:57:42.996Z,15.60
